Terminal Aerodrome Forecast
Issued by NWS Cleveland, OH

Home | Current Version | Previous Version | Text Only | Print | Product List | Glossary Off
Versions: 1 2 3 4 5 6 7 8 9 10 11 12 13

000
FTUS41 KCLE 172300
TAFTOL
TAF
KTOL 172327Z 1800/1824 VRB03KT P6SM SKC
     FM181000 01003KT P6SM SCT080
     FM181600 03007KT P6SM SCT040=

USA.gov is the U.S. government's official web portal to all federal, state and local government web resources and services.